Time;durP1;ratioP1;P1;durP2;ratioP2;P2;SDS_P1;SDS_P2;PMS_P1;PMS_P2;Temp;Humidity;BMP_temperature;BMP_pressure;BME280_temperature;BME280_humidity;BME280_pressure;Samples;Min_cycle;Max_cycle;Signal;HPM_P1;HPM_P2
2023/01/04 00:01:20;;;;;;;3.38;3.08;;;-0.20;99.90;;;;;;4784552;30;20138;-66
2023/01/04 00:03:47;;;;;;;3.30;2.80;;;-0.20;99.90;;;;;;4784592;30;20083;-66
2023/01/04 00:06:17;;;;;;;2.75;2.53;;;-0.20;99.90;;;;;;4785149;30;20455;-67
2023/01/04 00:08:44;;;;;;;3.63;3.20;;;-0.20;99.90;;;;;;4785626;29;20075;-67
2023/01/04 00:11:16;;;;;;;3.15;2.85;;;-0.20;99.90;;;;;;4786039;29;20055;-67
2023/01/04 00:13:44;;;;;;;3.53;3.10;;;-0.20;99.90;;;;;;4784456;29;20099;-67
2023/01/04 00:16:14;;;;;;;3.83;2.50;;;-0.20;99.90;;;;;;4777538;30;20138;-66
2023/01/04 00:18:44;;;;;;;4.53;3.10;;;-0.30;99.90;;;;;;4784254;29;20067;-68
2023/01/04 00:21:14;;;;;;;3.25;2.88;;;-0.20;99.90;;;;;;4785896;29;20051;-66
2023/01/04 00:23:44;;;;;;;3.15;2.85;;;-0.20;99.90;;;;;;4792168;29;20071;-65
2023/01/04 00:26:15;;;;;;;3.03;2.72;;;-0.20;99.90;;;;;;4785313;29;20052;-66
2023/01/04 00:28:43;;;;;;;4.63;3.00;;;-0.30;99.90;;;;;;4782852;29;20136;-68
2023/01/04 00:31:14;;;;;;;3.92;3.53;;;-0.20;99.90;;;;;;4784736;29;20055;-67
2023/01/04 00:33:43;;;;;;;3.50;3.13;;;-0.20;99.90;;;;;;4784434;29;20056;-66
2023/01/04 00:36:13;;;;;;;3.05;2.75;;;-0.20;99.90;;;;;;4783911;29;20172;-66
2023/01/04 00:38:41;;;;;;;4.25;2.83;;;-0.30;99.90;;;;;;4786481;30;20136;-66
2023/01/04 00:41:11;;;;;;;3.00;2.70;;;-0.30;99.90;;;;;;4782458;29;20051;-67
2023/01/04 00:43:38;;;;;;;2.80;2.60;;;-0.20;99.90;;;;;;4769230;30;20601;-65
2023/01/04 00:46:10;;;;;;;3.20;2.72;;;-0.20;99.90;;;;;;4784062;29;20047;-66
2023/01/04 00:48:38;;;;;;;3.20;2.78;;;-0.20;99.90;;;;;;4785166;30;20612;-67
2023/01/04 00:51:07;;;;;;;7.07;3.38;;;-0.20;99.90;;;;;;4783597;29;20059;-67
2023/01/04 00:53:35;;;;;;;2.88;2.63;;;-0.20;99.90;;;;;;4784150;30;20052;-66
2023/01/04 00:56:02;;;;;;;3.70;2.72;;;-0.20;99.90;;;;;;4783719;29;20055;-66
2023/01/04 00:58:30;;;;;;;3.00;2.67;;;-0.20;99.90;;;;;;4785469;29;20146;-67
2023/01/04 01:00:57;;;;;;;3.42;3.13;;;-0.20;99.90;;;;;;4783473;29;20112;-66
2023/01/04 01:03:24;;;;;;;3.28;2.97;;;-0.20;99.90;;;;;;4786524;29;20128;-67
2023/01/04 01:05:52;;;;;;;3.53;3.10;;;-0.30;99.90;;;;;;4782560;29;20055;-67
2023/01/04 01:08:27;;;;;;;3.10;2.80;;;-0.30;99.90;;;;;;4784215;29;20100;-65
2023/01/04 01:10:55;;;;;;;3.08;2.78;;;-0.20;99.90;;;;;;4784242;29;20066;-67
2023/01/04 01:13:23;;;;;;;4.18;3.78;;;-0.30;99.90;;;;;;4765810;30;20051;-69
2023/01/04 01:15:50;;;;;;;3.83;3.30;;;-0.30;99.90;;;;;;4781531;30;20114;-66
2023/01/04 01:18:18;;;;;;;3.50;3.20;;;-0.20;99.90;;;;;;4784902;29;20051;-67
2023/01/04 01:20:46;;;;;;;3.83;2.88;;;-0.20;99.90;;;;;;4784408;29;20562;-67
2023/01/04 01:23:15;;;;;;;3.97;3.30;;;-0.20;99.90;;;;;;4783424;29;20059;-69
2023/01/04 01:25:44;;;;;;;3.08;2.78;;;-0.20;99.90;;;;;;4788203;29;20058;-66
2023/01/04 01:28:12;;;;;;;3.08;2.78;;;-0.20;99.90;;;;;;4787719;29;20120;-67
2023/01/04 01:30:43;;;;;;;3.65;3.33;;;-0.20;99.90;;;;;;4784872;29;20112;-65
2023/01/04 01:33:11;;;;;;;4.38;3.22;;;-0.20;99.90;;;;;;4784723;29;20165;-67
2023/01/04 01:35:38;;;;;;;3.63;3.33;;;-0.20;99.90;;;;;;4784099;29;20357;-66
2023/01/04 01:38:06;;;;;;;3.45;2.80;;;-0.20;99.90;;;;;;4786414;29;20063;-66
2023/01/04 01:40:33;;;;;;;3.10;2.83;;;-0.20;99.90;;;;;;4783004;29;20066;-67
2023/01/04 01:43:02;;;;;;;4.13;3.40;;;-0.20;99.90;;;;;;4783351;29;20043;-66
2023/01/04 01:45:33;;;;;;;3.70;3.28;;;-0.20;99.90;;;;;;4782928;29;20059;-67
2023/01/04 01:48:10;;;;;;;4.40;3.58;;;-0.20;99.90;;;;;;4782840;29;20056;-66
2023/01/04 01:50:42;;;;;;;4.10;3.28;;;-0.20;99.90;;;;;;4784471;29;20081;-66
2023/01/04 01:53:10;;;;;;;4.60;3.05;;;-0.20;99.90;;;;;;4784762;29;20062;-66
2023/01/04 01:55:40;;;;;;;4.28;3.33;;;-0.20;99.90;;;;;;4784466;29;20051;-66
2023/01/04 01:58:17;;;;;;;3.47;3.17;;;-0.20;99.90;;;;;;4785920;29;20055;-66
2023/01/04 02:00:44;;;;;;;3.78;2.95;;;-0.30;99.90;;;;;;4785216;30;20070;-66
2023/01/04 02:03:16;;;;;;;3.97;3.42;;;-0.30;99.90;;;;;;4788437;29;20116;-67
2023/01/04 02:05:45;;;;;;;5.85;4.32;;;-0.20;99.90;;;;;;4786838;29;20066;-67
2023/01/04 02:08:15;;;;;;;3.55;3.25;;;-0.20;99.90;;;;;;4789799;29;20048;-67
2023/01/04 02:10:42;;;;;;;3.50;3.20;;;-0.30;99.90;;;;;;4786719;29;20063;-67
2023/01/04 02:13:15;;;;;;;3.63;3.13;;;-0.30;99.90;;;;;;4788481;29;20047;-66
2023/01/04 02:15:59;;;;;;;4.28;3.40;;;-0.40;99.90;;;;;;4787267;29;20064;-67
2023/01/04 02:18:34;;;;;;;3.58;3.28;;;-0.40;99.90;;;;;;4784638;29;20693;-67
2023/01/04 02:21:06;;;;;;;4.03;3.13;;;-0.40;99.90;;;;;;4788157;29;20070;-68
2023/01/04 02:24:14;;;;;;;5.25;3.80;;;-0.30;99.90;;;;;;4783004;29;20483;-67
2023/01/04 02:27:21;;;;;;;3.55;3.25;;;-0.30;99.90;;;;;;4784782;30;20055;-66
2023/01/04 02:30:48;;;;;;;4.18;3.30;;;-0.30;99.90;;;;;;4788279;29;20521;-66
2023/01/04 02:33:43;;;;;;;4.90;3.58;;;-0.30;99.90;;;;;;4785894;29;20613;-66
2023/01/04 02:36:18;;;;;;;5.43;3.70;;;-0.30;99.90;;;;;;4788165;29;20483;-67
2023/01/04 02:39:04;;;;;;;5.35;3.95;;;-0.30;99.90;;;;;;4786658;29;20118;-65
2023/01/04 02:41:35;;;;;;;5.28;3.72;;;-0.30;99.90;;;;;;4784405;29;20067;-67
2023/01/04 02:47:02;;;;;;;4.57;4.10;;;-0.30;99.90;;;;;;4776900;29;20505;-66
2023/01/04 02:52:16;;;;;;;5.95;4.30;;;-0.20;99.90;;;;;;4769281;30;20024;-65
2023/01/04 02:54:47;;;;;;;4.68;4.00;;;-0.20;99.90;;;;;;4770731;29;20518;-66
2023/01/04 02:57:41;;;;;;;6.82;4.72;;;-0.20;99.90;;;;;;4784563;30;20059;-65
2023/01/04 03:06:47;;;;;;;5.20;4.20;;;-0.30;99.90;;;;;;4782899;29;20618;-72
2023/01/04 03:09:20;;;;;;;5.18;4.63;;;-0.20;99.90;;;;;;4782108;29;20087;-71
2023/01/04 03:14:45;;;;;;;5.07;4.25;;;-0.20;99.90;;;;;;4785883;29;20409;-71
2023/01/04 03:17:16;;;;;;;7.22;4.55;;;-0.20;99.90;;;;;;4788593;29;20063;-71
2023/01/04 03:19:53;;;;;;;6.10;4.28;;;-0.20;99.90;;;;;;4786827;29;20055;-72
2023/01/04 03:36:46;;;;;;;16.27;6.70;;;-0.30;99.90;;;;;;4786673;30;20289;-71
2023/01/04 03:48:33;;;;;;;3.35;3.05;;;-0.30;99.90;;;;;;4786167;29;20433;-71
2023/01/04 03:51:14;;;;;;;4.38;3.08;;;-0.30;99.90;;;;;;4783223;29;20063;-71
2023/01/04 03:53:52;;;;;;;4.57;2.90;;;-0.30;99.90;;;;;;4784817;30;20588;-72
2023/01/04 03:56:24;;;;;;;4.15;2.63;;;-0.30;99.90;;;;;;4785161;29;20153;-70
2023/01/04 03:58:53;;;;;;;3.00;2.75;;;-0.30;99.90;;;;;;4787462;29;20075;-71
2023/01/04 04:01:21;;;;;;;3.72;2.97;;;-0.30;99.90;;;;;;4784690;29;20063;-71
2023/01/04 04:09:18;;;;;;;4.43;3.22;;;-0.30;99.90;;;;;;4785843;29;20059;-70
2023/01/04 04:11:48;;;;;;;3.88;3.05;;;-0.30;99.90;;;;;;4780202;29;20050;-70
2023/01/04 04:14:15;;;;;;;2.63;2.42;;;-0.30;99.90;;;;;;4785094;29;20112;-69
2023/01/04 04:16:43;;;;;;;3.15;2.75;;;-0.30;99.90;;;;;;4782856;29;20043;-70
2023/01/04 04:19:10;;;;;;;4.22;2.80;;;-0.30;99.90;;;;;;4783584;29;20051;-70
2023/01/04 04:21:38;;;;;;;3.20;2.55;;;-0.30;99.90;;;;;;4785070;29;20423;-71
2023/01/04 04:24:07;;;;;;;3.63;2.80;;;-0.30;99.90;;;;;;4785301;29;20086;-71
2023/01/04 04:26:34;;;;;;;2.50;2.30;;;-0.30;99.90;;;;;;4781780;30;20113;-71
2023/01/04 04:29:03;;;;;;;2.78;2.15;;;-0.30;99.90;;;;;;4776254;30;20066;-71
2023/01/04 04:31:30;;;;;;;3.30;3.00;;;-0.30;99.90;;;;;;4785862;29;20428;-71
2023/01/04 04:33:58;;;;;;;3.80;2.80;;;-0.30;99.90;;;;;;4782566;29;20055;-71
2023/01/04 04:36:25;;;;;;;3.10;2.53;;;-0.30;99.90;;;;;;4783934;30;20132;-71
2023/01/04 04:38:53;;;;;;;3.85;2.92;;;-0.30;99.90;;;;;;4784115;29;20047;-72
2023/01/04 04:41:37;;;;;;;4.25;2.53;;;-0.30;99.90;;;;;;4785346;29;20057;-71
2023/01/04 04:44:07;;;;;;;3.92;2.88;;;-0.30;99.90;;;;;;4781852;30;20500;-71
2023/01/04 04:46:34;;;;;;;4.60;2.47;;;-0.40;99.90;;;;;;4782535;29;20195;-70
2023/01/04 04:49:02;;;;;;;2.72;2.30;;;-0.40;99.90;;;;;;4785486;29;20051;-70
2023/01/04 04:51:30;;;;;;;3.38;2.53;;;-0.40;99.90;;;;;;4783165;29;20137;-70
2023/01/04 04:53:57;;;;;;;3.55;2.45;;;-0.40;99.90;;;;;;4781328;30;20146;-70
2023/01/04 04:56:25;;;;;;;2.58;2.38;;;-0.40;99.90;;;;;;4778110;30;20099;-70
2023/01/04 04:58:52;;;;;;;3.72;2.53;;;-0.40;99.90;;;;;;4786879;29;20467;-70
2023/01/04 05:01:21;;;;;;;4.22;3.50;;;-0.50;99.90;;;;;;4782069;29;20095;-71
2023/01/04 05:03:49;;;;;;;6.10;4.90;;;-0.50;99.90;;;;;;4784307;29;20055;-69
2023/01/04 05:06:16;;;;;;;5.78;5.05;;;-0.40;99.90;;;;;;4782311;29;20138;-70
2023/01/04 05:08:44;;;;;;;7.80;5.50;;;-0.50;99.90;;;;;;4797009;29;20056;-70
2023/01/04 05:11:13;;;;;;;6.63;4.82;;;-0.50;99.90;;;;;;4784403;30;20047;-71
2023/01/04 05:13:40;;;;;;;6.13;3.60;;;-0.50;99.90;;;;;;4785089;29;20536;-71
2023/01/04 05:16:09;;;;;;;3.88;3.08;;;-0.50;99.90;;;;;;4782324;29;20048;-71
2023/01/04 05:18:38;;;;;;;4.75;3.08;;;-0.60;99.90;;;;;;4786111;29;20481;-71
2023/01/04 05:21:06;;;;;;;5.90;3.40;;;-0.60;99.90;;;;;;4785342;29;20073;-70
2023/01/04 05:23:33;;;;;;;4.32;3.58;;;-0.60;99.90;;;;;;4785049;29;20461;-70
2023/01/04 05:26:02;;;;;;;4.82;2.97;;;-0.60;99.90;;;;;;4781660;29;20051;-71
2023/01/04 05:28:30;;;;;;;3.97;3.17;;;-0.60;99.90;;;;;;4767316;30;20579;-71
2023/01/04 05:30:56;;;;;;;4.13;2.92;;;-0.60;99.90;;;;;;4781838;30;20059;-72
2023/01/04 05:33:26;;;;;;;5.38;3.58;;;-0.70;99.90;;;;;;4772150;30;20047;-70
2023/01/04 05:35:58;;;;;;;5.35;3.35;;;-0.70;99.90;;;;;;4781824;29;20062;-70
2023/01/04 05:38:26;;;;;;;3.88;3.22;;;-0.60;99.90;;;;;;4766917;30;20162;-70
2023/01/04 05:40:54;;;;;;;3.80;3.42;;;-0.70;99.90;;;;;;4768229;30;20051;-71
2023/01/04 05:43:23;;;;;;;5.38;3.88;;;-0.70;99.90;;;;;;4769330;29;20047;-70
2023/01/04 05:45:53;;;;;;;5.80;3.58;;;-0.70;99.90;;;;;;4778258;30;20465;-70
2023/01/04 05:48:23;;;;;;;5.15;3.63;;;-0.70;99.90;;;;;;4783985;29;20059;-71
2023/01/04 05:50:50;;;;;;;4.45;3.75;;;-0.70;99.90;;;;;;4785254;29;20521;-71
2023/01/04 05:53:19;;;;;;;6.95;4.00;;;-0.70;99.90;;;;;;4780212;29;20109;-71
2023/01/04 05:55:48;;;;;;;6.88;4.60;;;-0.70;99.90;;;;;;4783461;30;20059;-71
2023/01/04 05:58:16;;;;;;;5.57;4.03;;;-0.60;99.90;;;;;;4781180;29;20058;-70
2023/01/04 06:00:43;;;;;;;6.00;4.53;;;-0.70;99.90;;;;;;4781982;29;20047;-71
2023/01/04 06:03:11;;;;;;;5.72;4.47;;;-0.60;99.90;;;;;;4783076;29;20062;-71
2023/01/04 06:05:38;;;;;;;7.53;4.13;;;-0.60;99.90;;;;;;4782687;29;20607;-71
2023/01/04 06:08:06;;;;;;;9.20;4.75;;;-0.50;99.90;;;;;;4785021;29;20497;-71
2023/01/04 06:10:35;;;;;;;7.07;4.85;;;-0.50;99.90;;;;;;4777459;29;20047;-70
2023/01/04 06:13:04;;;;;;;8.48;4.80;;;-0.50;99.90;;;;;;4770176;29;20055;-71
2023/01/04 06:15:31;;;;;;;6.00;4.18;;;-0.50;99.90;;;;;;4779442;29;20138;-71
2023/01/04 06:17:59;;;;;;;7.07;4.55;;;-0.40;99.90;;;;;;4781894;29;20058;-71
2023/01/04 06:20:26;;;;;;;5.88;4.35;;;-0.40;99.90;;;;;;4775775;30;20383;-71
2023/01/04 06:22:54;;;;;;;8.07;4.53;;;-0.50;99.90;;;;;;4776380;29;20063;-71
2023/01/04 06:25:21;;;;;;;6.70;3.95;;;-0.50;99.90;;;;;;4782296;29;20471;-71
2023/01/04 06:27:50;;;;;;;5.38;3.67;;;-0.50;99.90;;;;;;4776723;30;20098;-71
2023/01/04 06:30:18;;;;;;;5.28;3.63;;;-0.50;99.90;;;;;;4779281;30;20047;-70
2023/01/04 06:32:45;;;;;;;5.32;3.72;;;-0.60;99.90;;;;;;4783443;29;20103;-71
2023/01/04 06:35:13;;;;;;;7.18;4.28;;;-0.60;99.90;;;;;;4784418;29;20074;-71
2023/01/04 06:37:40;;;;;;;10.88;4.72;;;-0.60;99.90;;;;;;4784176;29;20066;-70
2023/01/04 06:40:10;;;;;;;6.75;4.25;;;-0.60;99.90;;;;;;4782851;29;20112;-71
2023/01/04 06:42:46;;;;;;;8.25;4.45;;;-0.60;99.90;;;;;;4778998;30;20532;-71
2023/01/04 06:45:16;;;;;;;5.95;4.10;;;-0.60;99.90;;;;;;4779865;30;20063;-72
2023/01/04 06:47:46;;;;;;;5.68;3.80;;;-0.60;99.90;;;;;;4779894;30;20552;-71
2023/01/04 06:50:14;;;;;;;5.15;2.72;;;-0.70;99.90;;;;;;4788006;29;20047;-70
2023/01/04 06:52:41;;;;;;;5.10;3.60;;;-0.70;99.90;;;;;;4787942;29;20139;-71
2023/01/04 06:55:10;;;;;;;3.83;3.13;;;-0.70;99.90;;;;;;4787359;29;20470;-71
2023/01/04 06:57:37;;;;;;;5.63;3.45;;;-0.70;99.90;;;;;;4784346;30;20059;-72
2023/01/04 07:00:07;;;;;;;4.20;3.28;;;-0.60;99.90;;;;;;4785709;29;20091;-67
2023/01/04 07:02:37;;;;;;;5.68;3.97;;;-0.70;99.90;;;;;;4786586;29;20513;-67
2023/01/04 07:05:05;;;;;;;5.13;3.45;;;-0.70;99.90;;;;;;4800080;29;20494;-67
2023/01/04 07:07:34;;;;;;;8.95;4.35;;;-0.70;99.90;;;;;;4784649;29;20051;-67
2023/01/04 07:10:02;;;;;;;9.18;5.22;;;-0.60;99.90;;;;;;4786413;29;20191;-67
2023/01/04 07:12:31;;;;;;;8.38;5.32;;;-0.60;99.90;;;;;;4785609;29;20078;-66
2023/01/04 07:14:58;;;;;;;8.27;5.25;;;-0.60;99.90;;;;;;4783342;29;20059;-66
2023/01/04 07:17:26;;;;;;;8.93;5.95;;;-0.50;99.90;;;;;;4781531;29;20052;-65
2023/01/04 07:19:55;;;;;;;8.45;5.80;;;-0.50;99.90;;;;;;4784876;30;20534;-69
2023/01/04 07:22:23;;;;;;;10.18;6.05;;;-0.50;99.90;;;;;;4787464;30;20055;-70
2023/01/04 07:24:50;;;;;;;11.40;7.30;;;-0.50;99.90;;;;;;4785698;29;20403;-67
2023/01/04 07:27:18;;;;;;;10.00;6.38;;;-0.50;99.90;;;;;;4802201;29;20119;-66
2023/01/04 07:29:45;;;;;;;11.23;6.72;;;-0.50;99.90;;;;;;4804551;29;20058;-67
2023/01/04 07:32:13;;;;;;;11.32;5.97;;;-0.40;99.90;;;;;;4799532;29;20096;-66
2023/01/04 07:34:42;;;;;;;10.98;6.13;;;-0.40;99.90;;;;;;4781669;30;20128;-67
2023/01/04 07:37:11;;;;;;;11.60;6.43;;;-0.50;99.90;;;;;;4780277;30;20122;-67
2023/01/04 07:39:39;;;;;;;9.50;6.13;;;-0.40;99.90;;;;;;4786636;30;20492;-67
2023/01/04 07:42:07;;;;;;;7.93;5.68;;;-0.40;99.90;;;;;;4785952;30;20099;-70
2023/01/04 07:44:35;;;;;;;10.40;5.88;;;-0.40;99.90;;;;;;4782214;29;20140;-67
2023/01/04 07:47:03;;;;;;;13.43;6.85;;;-0.40;99.90;;;;;;4779819;29;20079;-66
2023/01/04 07:49:31;;;;;;;9.75;6.10;;;-0.40;99.90;;;;;;4777981;29;20055;-66
2023/01/04 07:51:58;;;;;;;11.30;5.88;;;-0.40;99.90;;;;;;4777284;30;20492;-68
2023/01/04 07:54:27;;;;;;;8.18;5.22;;;-0.40;99.90;;;;;;4782838;29;20526;-69
2023/01/04 07:56:54;;;;;;;10.43;5.70;;;-0.50;99.90;;;;;;4777745;30;20486;-70
2023/01/04 07:59:23;;;;;;;12.70;6.57;;;-0.50;99.90;;;;;;4778558;30;20051;-69
2023/01/04 08:01:51;;;;;;;9.88;6.07;;;-0.50;99.90;;;;;;4765673;29;20047;-69
2023/01/04 08:04:23;;;;;;;13.57;6.50;;;-0.50;99.90;;;;;;4781943;30;20579;-73
2023/01/04 08:06:51;;;;;;;11.88;6.40;;;-0.40;99.90;;;;;;4781684;30;20059;-70
2023/01/04 08:09:18;;;;;;;12.18;6.00;;;-0.50;99.90;;;;;;4786864;29;20051;-67
2023/01/04 08:11:47;;;;;;;8.00;4.50;;;-0.50;99.90;;;;;;4777098;30;20060;-73
2023/01/04 08:14:15;;;;;;;5.10;3.90;;;-0.50;99.90;;;;;;4776669;29;20047;-76
2023/01/04 08:16:43;;;;;;;7.07;3.83;;;-0.60;99.90;;;;;;4780313;30;20162;-75
2023/01/04 08:19:15;;;;;;;5.93;3.55;;;-0.70;99.90;;;;;;4784587;29;20051;-68
2023/01/04 08:21:43;;;;;;;6.32;3.60;;;-0.70;99.90;;;;;;4776884;30;20458;-68
2023/01/04 08:24:12;;;;;;;5.55;3.55;;;-0.70;99.90;;;;;;4779647;29;20053;-70
2023/01/04 08:26:40;;;;;;;6.47;3.78;;;-0.80;99.90;;;;;;4785730;29;20111;-69
2023/01/04 08:29:10;;;;;;;8.07;3.83;;;-0.70;99.90;;;;;;4784994;29;20066;-75
2023/01/04 08:31:41;;;;;;;6.32;3.55;;;-0.80;99.90;;;;;;4776105;29;20073;-76
2023/01/04 08:34:10;;;;;;;4.65;2.90;;;-0.80;99.90;;;;;;4784471;29;20062;-74
2023/01/04 08:36:47;;;;;;;4.30;3.03;;;-0.80;99.90;;;;;;4783205;29;20126;-70
2023/01/04 08:39:14;;;;;;;4.90;3.53;;;-0.80;99.90;;;;;;4782665;29;20213;-70
2023/01/04 08:41:52;;;;;;;4.32;3.63;;;-0.80;99.90;;;;;;4782104;29;20055;-71
2023/01/04 08:44:23;;;;;;;5.32;3.13;;;-0.70;99.90;;;;;;4768228;30;20067;-69
2023/01/04 08:46:53;;;;;;;6.47;3.25;;;-0.60;99.90;;;;;;4780195;29;20452;-74
2023/01/04 08:49:22;;;;;;;6.05;3.50;;;-0.60;99.90;;;;;;4761988;30;20544;-74
2023/01/04 08:51:50;;;;;;;7.07;3.28;;;-0.60;99.90;;;;;;4781083;29;20144;-76
2023/01/04 08:54:18;;;;;;;4.28;2.78;;;-0.50;99.90;;;;;;4776841;29;20058;-75
2023/01/04 08:56:46;;;;;;;5.68;3.25;;;-0.60;99.90;;;;;;4776005;30;20055;-70
2023/01/04 08:59:14;;;;;;;4.57;2.97;;;-0.60;99.90;;;;;;4782339;29;20567;-69
2023/01/04 09:01:44;;;;;;;6.47;3.80;;;-0.60;99.90;;;;;;4782523;29;20059;-70
2023/01/04 09:04:12;;;;;;;6.38;4.20;;;-0.70;99.90;;;;;;4781963;29;20063;-70
2023/01/04 09:06:40;;;;;;;8.45;4.05;;;-0.70;99.90;;;;;;4778973;29;20048;-69
2023/01/04 09:09:07;;;;;;;6.90;4.13;;;-0.70;99.90;;;;;;4779916;29;20055;-69
2023/01/04 09:11:35;;;;;;;7.90;4.00;;;-0.70;99.90;;;;;;4780242;29;20096;-70
2023/01/04 09:14:02;;;;;;;6.45;3.92;;;-0.70;99.90;;;;;;4783338;29;20504;-68
2023/01/04 09:16:30;;;;;;;6.63;3.75;;;-0.70;99.90;;;;;;4773970;29;20474;-75
2023/01/04 09:18:59;;;;;;;7.47;5.35;;;-0.70;99.90;;;;;;4782630;29;20051;-74
2023/01/04 09:21:27;;;;;;;7.25;4.70;;;-0.60;99.90;;;;;;4776532;29;20044;-75
2023/01/04 09:23:54;;;;;;;7.28;4.40;;;-0.60;99.90;;;;;;4778675;30;20091;-75
2023/01/04 09:26:23;;;;;;;7.22;3.40;;;-0.70;99.90;;;;;;4763031;29;63022;-75
2023/01/04 09:28:54;;;;;;;8.13;3.75;;;-0.70;99.90;;;;;;4775886;29;20525;-75
2023/01/04 09:31:24;;;;;;;7.57;4.45;;;-0.70;99.90;;;;;;4775208;29;20138;-75
2023/01/04 09:33:53;;;;;;;4.72;3.38;;;-0.70;99.90;;;;;;4776117;29;20055;-75
2023/01/04 09:36:23;;;;;;;6.05;3.92;;;-0.70;99.90;;;;;;4776261;29;20055;-69
2023/01/04 09:38:52;;;;;;;4.55;3.63;;;-0.80;99.90;;;;;;4779499;29;20564;-70
2023/01/04 09:41:26;;;;;;;6.78;3.78;;;-0.80;99.90;;;;;;4780462;29;20081;-70
2023/01/04 09:43:55;;;;;;;6.53;3.75;;;-0.80;99.90;;;;;;4777284;29;20059;-70
2023/01/04 09:46:33;;;;;;;7.57;3.33;;;-0.80;99.90;;;;;;4778890;29;20561;-75
2023/01/04 09:49:15;;;;;;;9.10;4.22;;;-0.70;99.90;;;;;;4792079;29;20064;-74
2023/01/04 09:51:54;;;;;;;6.63;4.30;;;-0.50;99.90;;;;;;4775400;29;20124;-74
2023/01/04 09:54:29;;;;;;;7.25;4.57;;;-0.50;99.90;;;;;;4776925;29;20637;-74
2023/01/04 09:56:59;;;;;;;7.93;4.30;;;-0.40;99.90;;;;;;4778170;29;20096;-70
2023/01/04 09:59:32;;;;;;;6.65;4.47;;;-0.40;99.90;;;;;;4779575;29;20062;-70
2023/01/04 10:02:09;;;;;;;6.95;4.32;;;-0.40;99.90;;;;;;4777515;29;20512;-71
2023/01/04 10:04:45;;;;;;;5.70;4.15;;;-0.40;99.90;;;;;;4779998;29;20075;-70
2023/01/04 10:07:23;;;;;;;8.93;4.03;;;-0.40;99.90;;;;;;4779709;29;20065;-69
2023/01/04 10:09:52;;;;;;;5.90;3.50;;;-0.50;99.90;;;;;;4779663;29;20098;-71
2023/01/04 10:12:41;;;;;;;6.30;3.63;;;-0.50;99.90;;;;;;4775646;29;20071;-69
2023/01/04 10:15:26;;;;;;;10.02;3.33;;;-0.50;99.90;;;;;;4781137;29;20085;-69
2023/01/04 10:18:12;;;;;;;7.40;3.38;;;-0.50;99.90;;;;;;4763335;30;20063;-70
2023/01/04 10:21:19;;;;;;;7.70;3.38;;;-0.50;99.90;;;;;;4781537;30;20063;-68
2023/01/04 10:24:02;;;;;;;5.55;3.28;;;-0.40;99.90;;;;;;4783515;29;20070;-69
2023/01/04 10:26:38;;;;;;;4.47;2.92;;;-0.40;99.90;;;;;;4770222;30;20063;-69
2023/01/04 10:29:45;;;;;;;4.20;3.17;;;-0.30;99.90;;;;;;4774752;30;20050;-70
2023/01/04 10:32:19;;;;;;;7.07;3.47;;;-0.30;99.90;;;;;;4769520;30;20091;-67
2023/01/04 10:34:48;;;;;;;6.88;3.65;;;-0.30;99.90;;;;;;4769753;30;20048;-68
2023/01/04 10:37:20;;;;;;;6.03;3.03;;;-0.30;99.90;;;;;;4768695;30;20052;-69
2023/01/04 10:39:54;;;;;;;4.07;2.92;;;-0.30;99.90;;;;;;4775829;29;20068;-69
2023/01/04 10:42:33;;;;;;;4.65;3.58;;;-0.30;99.90;;;;;;4779664;30;20142;-68
2023/01/04 10:45:13;;;;;;;6.50;3.00;;;-0.30;99.90;;;;;;4784544;30;20055;-68
2023/01/04 10:47:53;;;;;;;6.47;3.13;;;-0.30;99.90;;;;;;4797851;29;20054;-69
2023/01/04 10:50:26;;;;;;;7.00;3.95;;;-0.40;99.90;;;;;;4768571;30;20490;-70
2023/01/04 10:53:00;;;;;;;7.78;3.45;;;-0.40;99.90;;;;;;4768806;30;20505;-70
2023/01/04 10:55:39;;;;;;;5.07;3.30;;;-0.50;99.90;;;;;;4770825;30;20066;-69
2023/01/04 10:58:16;;;;;;;3.45;2.85;;;-0.50;99.90;;;;;;4782039;29;20545;-69
2023/01/04 11:00:50;;;;;;;6.22;3.33;;;-0.50;99.90;;;;;;4788071;29;20063;-69
2023/01/04 11:03:22;;;;;;;4.40;3.28;;;-0.60;99.90;;;;;;4787255;29;20074;-69
2023/01/04 11:05:55;;;;;;;4.88;3.05;;;-0.60;99.90;;;;;;4786645;29;20055;-70
2023/01/04 11:08:30;;;;;;;4.72;3.33;;;-0.50;99.90;;;;;;4788209;29;20090;-68
2023/01/04 11:11:06;;;;;;;7.60;3.90;;;-0.40;99.90;;;;;;4769824;30;20066;-71
2023/01/04 11:13:34;;;;;;;7.03;3.55;;;-0.40;99.90;;;;;;4787080;30;20142;-68
2023/01/04 11:16:04;;;;;;;5.25;3.63;;;-0.40;99.90;;;;;;4784506;30;20110;-70
2023/01/04 11:18:36;;;;;;;5.10;3.55;;;-0.40;99.90;;;;;;4788219;29;20532;-69
2023/01/04 11:21:07;;;;;;;6.15;3.13;;;-0.40;99.90;;;;;;4785144;29;20314;-69
2023/01/04 11:23:35;;;;;;;3.85;2.95;;;-0.50;99.90;;;;;;4787773;29;20059;-69
2023/01/04 11:26:13;;;;;;;6.15;3.53;;;-0.50;99.90;;;;;;4786120;29;20532;-70
2023/01/04 11:28:49;;;;;;;8.10;2.92;;;-0.50;99.90;;;;;;4787698;29;20082;-70
2023/01/04 11:31:26;;;;;;;4.97;3.08;;;-0.50;99.90;;;;;;4786280;29;20059;-70
2023/01/04 11:33:57;;;;;;;9.82;3.25;;;-0.50;99.90;;;;;;4786156;29;20055;-71
2023/01/04 11:36:37;;;;;;;6.40;3.20;;;-0.50;99.90;;;;;;4787661;29;20096;-70
2023/01/04 11:39:07;;;;;;;5.85;3.55;;;-0.60;99.90;;;;;;4785213;29;20075;-69
2023/01/04 11:41:36;;;;;;;4.22;3.22;;;-0.60;99.90;;;;;;4786822;29;20635;-70
2023/01/04 11:44:07;;;;;;;4.43;3.10;;;-0.60;99.90;;;;;;4785253;29;20130;-71
2023/01/04 11:46:35;;;;;;;6.28;3.40;;;-0.60;99.90;;;;;;4787495;29;20098;-70
2023/01/04 11:49:02;;;;;;;5.55;3.17;;;-0.70;99.90;;;;;;4786573;29;20051;-70
2023/01/04 11:51:39;;;;;;;5.80;3.22;;;-0.70;99.90;;;;;;4787482;29;20071;-70
2023/01/04 11:54:19;;;;;;;5.35;3.28;;;-0.70;99.90;;;;;;4785816;29;20218;-70
2023/01/04 11:57:05;;;;;;;4.20;3.28;;;-0.70;99.90;;;;;;4786825;29;20059;-70
2023/01/04 11:59:32;;;;;;;4.35;2.80;;;-0.70;99.90;;;;;;4787545;29;20521;-71
2023/01/04 12:02:20;;;;;;;5.43;3.35;;;-0.80;99.90;;;;;;4783556;29;20039;-71
2023/01/04 12:04:48;;;;;;;6.32;3.25;;;-0.70;99.90;;;;;;4768033;30;20184;-70
2023/01/04 12:07:30;;;;;;;6.65;3.75;;;-0.70;99.90;;;;;;4768361;30;20047;-69
2023/01/04 12:10:00;;;;;;;8.77;3.92;;;-0.70;99.90;;;;;;4778699;30;20055;-70
2023/01/04 12:12:32;;;;;;;7.22;3.60;;;-0.70;99.90;;;;;;4785717;29;20059;-68
2023/01/04 12:15:06;;;;;;;5.85;4.22;;;-0.80;99.90;;;;;;4785408;29;20077;-70
2023/01/04 12:17:47;;;;;;;9.35;4.65;;;-0.80;99.90;;;;;;4784248;30;20545;-71
2023/01/04 12:20:18;;;;;;;7.07;3.55;;;-0.90;99.90;;;;;;4784921;29;20059;-70
2023/01/04 12:22:46;;;;;;;5.13;3.63;;;-0.90;99.90;;;;;;4783113;30;20571;-68
2023/01/04 12:25:30;;;;;;;8.45;3.92;;;-0.90;99.90;;;;;;4777004;30;20161;-71
2023/01/04 12:27:59;;;;;;;4.88;3.03;;;-0.90;99.90;;;;;;4787204;29;20562;-69
2023/01/04 12:30:37;;;;;;;6.35;3.78;;;-0.90;99.90;;;;;;4796200;29;20056;-68
2023/01/04 12:33:38;;;;;;;12.00;3.63;;;-1.00;99.90;;;;;;4767677;30;20056;-68
2023/01/04 12:36:08;;;;;;;7.38;4.53;;;-1.00;99.90;;;;;;4766400;30;20154;-70
2023/01/04 12:39:04;;;;;;;8.88;4.88;;;-1.10;99.90;;;;;;4769431;30;20063;-71
2023/01/04 12:42:20;;;;;;;4.53;2.97;;;-1.20;99.90;;;;;;4784155;29;20505;-69
2023/01/04 12:45:18;;;;;;;7.90;4.78;;;-1.20;99.90;;;;;;4783940;30;20066;-69
2023/01/04 12:50:33;;;;;;;6.32;4.25;;;-1.20;99.90;;;;;;4782664;30;20405;-70
2023/01/04 12:53:05;;;;;;;9.43;4.38;;;-1.30;99.90;;;;;;4785619;29;20051;-70
2023/01/04 12:55:59;;;;;;;6.45;4.18;;;-1.30;99.90;;;;;;4786865;29;20063;-70
2023/01/04 12:58:42;;;;;;;11.18;4.82;;;-1.40;99.90;;;;;;4780087;29;20114;-70
2023/01/04 13:01:23;;;;;;;9.40;4.47;;;-1.40;99.90;;;;;;4782907;29;20071;-70
2023/01/04 13:03:59;;;;;;;10.77;4.35;;;-1.50;99.90;;;;;;4782776;29;20118;-70
2023/01/04 13:06:32;;;;;;;10.98;3.97;;;-1.50;99.90;;;;;;4784392;30;20055;-71
2023/01/04 13:09:00;;;;;;;7.10;3.50;;;-1.50;99.90;;;;;;4785574;29;20059;-68
2023/01/04 13:12:08;;;;;;;9.57;4.15;;;-1.60;99.90;;;;;;4785267;29;20062;-69
2023/01/04 13:14:42;;;;;;;11.07;4.43;;;-1.60;99.90;;;;;;4777896;29;20055;-69
2023/01/04 13:17:20;;;;;;;7.88;4.57;;;-1.60;99.90;;;;;;4780734;29;20083;-69
2023/01/04 13:19:48;;;;;;;12.73;4.45;;;-1.70;99.90;;;;;;4768033;30;20100;-70
2023/01/04 13:22:28;;;;;;;9.43;4.63;;;-1.70;99.90;;;;;;4766735;30;20051;-70
2023/01/04 13:24:57;;;;;;;10.32;4.43;;;-1.70;99.90;;;;;;4784733;29;20069;-69
2023/01/04 13:27:25;;;;;;;5.60;3.75;;;-1.70;99.90;;;;;;4786220;29;20109;-70
2023/01/04 13:29:53;;;;;;;8.60;4.85;;;-1.80;99.90;;;;;;4784352;29;20059;-70
2023/01/04 13:32:26;;;;;;;9.80;5.03;;;-1.80;99.90;;;;;;4786204;29;20138;-69
2023/01/04 13:35:02;;;;;;;11.85;4.07;;;-1.80;99.90;;;;;;4783980;29;20108;-71
2023/01/04 13:37:33;;;;;;;11.85;4.45;;;-1.80;99.90;;;;;;4786015;29;20155;-74
2023/01/04 13:40:21;;;;;;;6.90;4.35;;;-1.80;99.90;;;;;;4786058;29;20059;-73
2023/01/04 13:42:59;;;;;;;11.40;4.60;;;-1.80;99.90;;;;;;4784796;29;20517;-73
2023/01/04 13:45:51;;;;;;;10.55;5.28;;;-1.80;99.90;;;;;;4782651;29;20505;-74
2023/01/04 13:48:24;;;;;;;11.65;5.20;;;-1.90;99.90;;;;;;4785762;29;20089;-72
2023/01/04 13:51:03;;;;;;;;;;;-1.90;99.90;;;;;;4786835;29;20502;-73
2023/01/04 13:53:32;;;;;;;11.15;5.60;;;-1.90;99.90;;;;;;4782472;29;19969;-73
2023/01/04 13:56:01;;;;;;;10.25;4.95;;;-1.90;99.90;;;;;;4785573;29;20150;-73
2023/01/04 13:58:31;;;;;;;10.35;4.55;;;-1.90;99.90;;;;;;4782421;29;20050;-73